Time;durP1;ratioP1;P1;durP2;ratioP2;P2;SDS_P1;SDS_P2;PMS_P1;PMS_P2;Temp;Humidity;BMP_temperature;BMP_pressure;BME280_temperature;BME280_humidity;BME280_pressure;Samples;Min_cycle;Max_cycle;Signal;HPM_P1;HPM_P2
2021/11/20 00:00:35;;;;;;;64.43;23.13;;;;;;;;;;5052829;28;20112;-65
2021/11/20 00:03:05;;;;;;;70.03;21.77;;;;;;;;;;5052952;28;20049;-65
2021/11/20 00:05:39;;;;;;;61.63;20.80;;;;;;;;;;5052349;28;20056;-63
2021/11/20 00:08:07;;;;;;;68.43;20.20;;;;;;;;;;5052792;28;20053;-65
2021/11/20 00:10:36;;;;;;;58.63;20.30;;;;;;;;;;5052667;28;20045;-64
2021/11/20 00:13:07;;;;;;;65.07;22.83;;;;;;;;;;5052751;28;20053;-64
2021/11/20 00:15:37;;;;;;;77.40;27.13;;;;;;;;;;5052483;28;20506;-63
2021/11/20 00:18:06;;;;;;;65.82;24.80;;;;;;;;;;5052522;28;20053;-64
2021/11/20 00:20:38;;;;;;;63.92;21.75;;;;;;;;;;5052645;28;20371;-64
2021/11/20 00:23:06;;;;;;;54.70;20.75;;;;;;;;;;5052408;28;20564;-64
2021/11/20 00:25:40;;;;;;;54.78;18.95;;;;;;;;;;5052550;28;20473;-64
2021/11/20 00:28:08;;;;;;;57.97;20.60;;;;;;;;;;5052425;28;20053;-64
2021/11/20 00:30:51;;;;;;;59.38;21.23;;;;;;;;;;5052395;28;20041;-64
2021/11/20 00:33:21;;;;;;;59.03;19.23;;;;;;;;;;5052517;28;20049;-63
2021/11/20 00:35:50;;;;;;;58.45;18.70;;;;;;;;;;5052052;28;20045;-65
2021/11/20 00:38:17;;;;;;;52.90;17.38;;;;;;;;;;5051037;28;20051;-64
2021/11/20 00:40:47;;;;;;;55.72;20.60;;;;;;;;;;5052400;28;20494;-65
2021/11/20 00:43:16;;;;;;;55.50;21.35;;;;;;;;;;5052233;28;20052;-65
2021/11/20 00:45:43;;;;;;;56.45;21.83;;;;;;;;;;5051914;28;20045;-65
2021/11/20 00:48:10;;;;;;;49.75;18.30;;;;;;;;;;5052282;28;20136;-65
2021/11/20 00:50:42;;;;;;;51.88;18.50;;;;;;;;;;5052396;28;20582;-65
2021/11/20 00:53:10;;;;;;;52.75;17.13;;;;;;;;;;5052180;28;20669;-65
2021/11/20 00:55:37;;;;;;;59.63;19.25;;;;;;;;;;5051885;28;20107;-64
2021/11/20 00:58:05;;;;;;;52.03;18.67;;;;;;;;;;5052151;28;20048;-65
2021/11/20 01:00:35;;;;;;;50.35;18.40;;;;;;;;;;5051971;28;20045;-65
2021/11/20 01:03:03;;;;;;;50.87;19.93;;;;;;;;;;5051845;28;20045;-65
2021/11/20 01:05:31;;;;;;;54.72;19.95;;;;;;;;;;5051726;28;20278;-65
2021/11/20 01:07:59;;;;;;;61.65;21.75;;;;;;;;;;5051957;28;20109;-65
2021/11/20 01:10:30;;;;;;;58.00;20.73;;;;;;;;;;5051941;28;20045;-63
2021/11/20 01:12:57;;;;;;;56.33;19.23;;;;;;;;;;5051745;28;20059;-64
2021/11/20 01:15:28;;;;;;;44.92;16.73;;;;;;;;;;5052088;28;20114;-65
2021/11/20 01:17:55;;;;;;;46.25;15.98;;;;;;;;;;5051852;28;20045;-65
2021/11/20 01:20:22;;;;;;;50.28;18.15;;;;;;;;;;5051929;28;20132;-65
2021/11/20 01:22:50;;;;;;;47.47;16.42;;;;;;;;;;5051728;28;20088;-64
2021/11/20 01:25:20;;;;;;;52.13;18.48;;;;;;;;;;5051564;28;20152;-64
2021/11/20 01:27:47;;;;;;;50.77;17.93;;;;;;;;;;5051932;28;20053;-64
2021/11/20 01:30:15;;;;;;;55.63;19.15;;;;;;;;;;5051646;28;20747;-64
2021/11/20 01:32:43;;;;;;;52.20;17.63;;;;;;;;;;5051543;28;20060;-65
2021/11/20 01:35:11;;;;;;;50.25;17.33;;;;;;;;;;5051470;28;20053;-65
2021/11/20 01:37:39;;;;;;;55.15;20.00;;;;;;;;;;5051742;28;20490;-65
2021/11/20 01:40:09;;;;;;;49.28;17.25;;;;;;;;;;5051653;28;20383;-65
2021/11/20 01:42:39;;;;;;;52.60;18.98;;;;;;;;;;5051519;28;20504;-65
2021/11/20 01:45:10;;;;;;;55.67;20.45;;;;;;;;;;5051493;28;20068;-65
2021/11/20 01:47:42;;;;;;;57.17;18.83;;;;;;;;;;5051733;28;20686;-65
2021/11/20 01:50:13;;;;;;;50.92;17.83;;;;;;;;;;5053819;28;20468;-64
2021/11/20 01:52:47;;;;;;;48.08;16.52;;;;;;;;;;5055268;28;20048;-64
2021/11/20 01:55:32;;;;;;;53.42;18.13;;;;;;;;;;5055182;28;20076;-65
2021/11/20 01:58:08;;;;;;;46.70;16.27;;;;;;;;;;5055372;28;20092;-65
2021/11/20 02:00:41;;;;;;;52.75;18.13;;;;;;;;;;5055160;28;20049;-64
2021/11/20 02:03:16;;;;;;;52.67;17.13;;;;;;;;;;5055170;28;20053;-64
2021/11/20 02:05:51;;;;;;;48.22;16.98;;;;;;;;;;5055152;28;20049;-65
2021/11/20 02:08:26;;;;;;;51.30;15.98;;;;;;;;;;5055562;28;20125;-63
2021/11/20 02:10:55;;;;;;;51.17;16.30;;;;;;;;;;5055035;28;20061;-65
2021/11/20 02:13:26;;;;;;;49.95;17.20;;;;;;;;;;5055049;28;20057;-64
2021/11/20 02:15:56;;;;;;;;;;;;;;;;;;5055324;28;20063;-65
2021/11/20 02:18:25;;;;;;;47.53;15.88;;;;;;;;;;5055279;28;19924;-64
2021/11/20 02:20:57;;;;;;;47.83;15.93;;;;;;;;;;5054993;28;20118;-65
2021/11/20 02:23:23;;;;;;;47.00;16.25;;;;;;;;;;5054989;28;20048;-64
2021/11/20 02:25:50;;;;;;;58.35;18.85;;;;;;;;;;5054636;28;20477;-65
2021/11/20 02:28:18;;;;;;;51.70;16.65;;;;;;;;;;5054954;28;20051;-64
2021/11/20 02:30:48;;;;;;;55.58;16.95;;;;;;;;;;5054820;28;20490;-64
2021/11/20 02:33:17;;;;;;;55.28;18.50;;;;;;;;;;5054914;28;20110;-65
2021/11/20 02:35:47;;;;;;;52.00;16.98;;;;;;;;;;5054492;28;20490;-65
2021/11/20 02:38:17;;;;;;;49.58;15.75;;;;;;;;;;5054726;28;20053;-65
2021/11/20 02:40:45;;;;;;;52.20;16.33;;;;;;;;;;5054572;28;20052;-64
2021/11/20 02:43:12;;;;;;;52.33;17.05;;;;;;;;;;5054304;28;20053;-65
2021/11/20 02:45:43;;;;;;;49.90;15.85;;;;;;;;;;5054373;28;20136;-65
2021/11/20 02:48:12;;;;;;;51.28;17.02;;;;;;;;;;5054310;28;20052;-64
2021/11/20 02:50:42;;;;;;;49.75;16.88;;;;;;;;;;5054532;28;20127;-63
2021/11/20 02:53:12;;;;;;;49.90;16.03;;;;;;;;;;5054508;28;20502;-63
2021/11/20 02:55:43;;;;;;;48.20;17.40;;;;;;;;;;5054315;28;20691;-63
2021/11/20 02:58:10;;;;;;;56.42;17.63;;;;;;;;;;5054172;28;20482;-64
2021/11/20 03:00:37;;;;;;;51.45;16.70;;;;;;;;;;5053928;28;20135;-65
2021/11/20 03:03:04;;;;;;;44.60;14.88;;;;;;;;;;5054178;28;20049;-64
2021/11/20 03:05:33;;;;;;;46.95;15.13;;;;;;;;;;5054154;28;20048;-64
2021/11/20 03:08:00;;;;;;;42.78;15.35;;;;;;;;;;5054119;28;20053;-64
2021/11/20 03:10:27;;;;;;;45.67;15.85;;;;;;;;;;5054026;28;20045;-65
2021/11/20 03:12:54;;;;;;;41.60;15.23;;;;;;;;;;5053932;28;20395;-64
2021/11/20 03:15:21;;;;;;;45.17;15.73;;;;;;;;;;5053906;28;20127;-65
2021/11/20 03:17:48;;;;;;;51.25;17.05;;;;;;;;;;5054086;28;20128;-63
2021/11/20 03:20:17;;;;;;;46.10;15.18;;;;;;;;;;5053773;28;20049;-64
2021/11/20 03:22:49;;;;;;;43.85;15.48;;;;;;;;;;5053601;28;20049;-64
2021/11/20 03:25:16;;;;;;;43.03;14.02;;;;;;;;;;5054100;28;20136;-64
2021/11/20 03:27:43;;;;;;;35.08;13.30;;;;;;;;;;5053730;28;20140;-64
2021/11/20 03:30:11;;;;;;;41.00;14.68;;;;;;;;;;5053507;28;20528;-64
2021/11/20 03:32:38;;;;;;;39.25;14.00;;;;;;;;;;5053830;28;20410;-66
2021/11/20 03:35:07;;;;;;;37.92;13.73;;;;;;;;;;5053333;28;20051;-64
2021/11/20 03:37:34;;;;;;;40.30;14.98;;;;;;;;;;5053521;28;20075;-63
2021/11/20 03:40:04;;;;;;;35.42;13.07;;;;;;;;;;5053622;28;20414;-64
2021/11/20 03:42:31;;;;;;;34.55;13.57;;;;;;;;;;5053416;28;20045;-64
2021/11/20 03:44:58;;;;;;;44.35;15.45;;;;;;;;;;5053219;28;20045;-64
2021/11/20 03:47:25;;;;;;;43.53;13.73;;;;;;;;;;5053166;28;20061;-64
2021/11/20 03:49:52;;;;;;;40.25;13.88;;;;;;;;;;5053200;28;20045;-62
2021/11/20 03:52:20;;;;;;;32.70;12.80;;;;;;;;;;5053216;28;20049;-64
2021/11/20 03:54:48;;;;;;;41.95;14.27;;;;;;;;;;5052972;28;20044;-64
2021/11/20 03:57:16;;;;;;;34.50;12.07;;;;;;;;;;5052950;28;20553;-63
2021/11/20 03:59:43;;;;;;;38.85;13.98;;;;;;;;;;5053056;28;20061;-64
2021/11/20 04:02:10;;;;;;;38.60;12.93;;;;;;;;;;5053123;28;20060;-63
2021/11/20 04:04:38;;;;;;;35.03;13.25;;;;;;;;;;5052693;28;20416;-63
2021/11/20 04:07:05;;;;;;;38.35;14.43;;;;;;;;;;5053090;28;20060;-63
2021/11/20 04:09:32;;;;;;;34.75;13.82;;;;;;;;;;5052888;28;20064;-63
2021/11/20 04:11:59;;;;;;;46.70;15.20;;;;;;;;;;5052453;28;20045;-64
2021/11/20 04:14:28;;;;;;;37.95;14.48;;;;;;;;;;5052658;28;20409;-63
2021/11/20 04:16:56;;;;;;;30.13;11.07;;;;;;;;;;5053148;28;20049;-62
2021/11/20 04:19:23;;;;;;;31.05;10.63;;;;;;;;;;5052528;28;20411;-62
2021/11/20 04:21:52;;;;;;;35.20;12.18;;;;;;;;;;5052747;28;20060;-64
2021/11/20 04:24:19;;;;;;;30.83;12.20;;;;;;;;;;5052410;28;20059;-62
2021/11/20 04:26:46;;;;;;;34.63;12.50;;;;;;;;;;5052299;28;20406;-64
2021/11/20 04:29:13;;;;;;;34.35;13.07;;;;;;;;;;5052457;28;20048;-64
2021/11/20 04:31:42;;;;;;;32.25;12.45;;;;;;;;;;5052477;28;20048;-64
2021/11/20 04:34:09;;;;;;;32.83;12.15;;;;;;;;;;5052400;28;20060;-63
2021/11/20 04:36:36;;;;;;;32.83;13.07;;;;;;;;;;5052452;28;20494;-64
2021/11/20 04:39:05;;;;;;;42.25;15.32;;;;;;;;;;5052606;28;20406;-63
2021/11/20 04:41:32;;;;;;;35.50;12.93;;;;;;;;;;5052355;28;20049;-64
2021/11/20 04:43:59;;;;;;;40.58;13.55;;;;;;;;;;5052251;28;20168;-64
2021/11/20 04:46:26;;;;;;;31.48;12.27;;;;;;;;;;5051975;28;20045;-64
2021/11/20 04:48:55;;;;;;;35.10;12.75;;;;;;;;;;5052330;28;20049;-64
2021/11/20 04:51:23;;;;;;;30.33;12.10;;;;;;;;;;5052136;28;20049;-64
2021/11/20 04:53:51;;;;;;;30.02;11.63;;;;;;;;;;5052066;28;20486;-64
2021/11/20 04:56:20;;;;;;;28.73;11.52;;;;;;;;;;5047806;22;20060;-63
2021/11/20 04:58:49;;;;;;;33.45;11.93;;;;;;;;;;5031670;28;20118;-63
2021/11/20 05:01:18;;;;;;;29.60;10.43;;;;;;;;;;5032166;28;20143;-63
2021/11/20 05:03:47;;;;;;;29.70;12.75;;;;;;;;;;5032347;28;20072;-63
2021/11/20 05:06:16;;;;;;;25.70;11.82;;;;;;;;;;5031944;28;20064;-61
2021/11/20 05:08:43;;;;;;;28.10;12.45;;;;;;;;;;5032681;28;20046;-61
2021/11/20 05:11:11;;;;;;;31.60;10.73;;;;;;;;;;5031723;28;20136;-63
2021/11/20 05:13:39;;;;;;;26.42;10.57;;;;;;;;;;5031930;28;20133;-63
2021/11/20 05:16:06;;;;;;;32.83;13.00;;;;;;;;;;5031746;28;20061;-61
2021/11/20 05:18:33;;;;;;;32.38;12.20;;;;;;;;;;5031881;28;20056;-61
2021/11/20 05:21:02;;;;;;;30.90;11.63;;;;;;;;;;5031781;28;20427;-63
2021/11/20 05:23:32;;;;;;;28.20;10.50;;;;;;;;;;5031979;28;20053;-63
2021/11/20 05:25:59;;;;;;;33.28;12.80;;;;;;;;;;5035123;28;20050;-63
2021/11/20 05:28:27;;;;;;;32.65;12.05;;;;;;;;;;5036106;28;20054;-61
2021/11/20 05:30:54;;;;;;;33.83;11.80;;;;;;;;;;5035967;28;20058;-63
2021/11/20 05:33:31;;;;;;;34.15;14.02;;;;;;;;;;5036014;28;20136;-61
2021/11/20 05:35:59;;;;;;;33.08;12.45;;;;;;;;;;5035916;28;20481;-62
2021/11/20 05:38:26;;;;;;;31.50;12.20;;;;;;;;;;5036278;28;20055;-61
2021/11/20 05:40:54;;;;;;;29.60;10.85;;;;;;;;;;5035635;28;20414;-61
2021/11/20 05:43:22;;;;;;;30.60;12.93;;;;;;;;;;5035812;28;20052;-62
2021/11/20 05:45:51;;;;;;;30.67;11.77;;;;;;;;;;5035615;28;20538;-62
2021/11/20 05:48:18;;;;;;;29.38;13.80;;;;;;;;;;5035951;28;20509;-62
2021/11/20 05:50:45;;;;;;;30.00;12.98;;;;;;;;;;5035509;28;20050;-62
2021/11/20 05:53:14;;;;;;;30.38;11.43;;;;;;;;;;5036080;28;20053;-62
2021/11/20 05:55:43;;;;;;;28.90;11.98;;;;;;;;;;5035234;28;20076;-62
2021/11/20 05:58:12;;;;;;;38.00;14.15;;;;;;;;;;5035485;28;20072;-62
2021/11/20 06:00:42;;;;;;;35.10;14.00;;;;;;;;;;5035355;28;20058;-61
2021/11/20 06:03:10;;;;;;;30.05;11.90;;;;;;;;;;5035428;28;20490;-62
2021/11/20 06:05:38;;;;;;;33.03;12.57;;;;;;;;;;5035327;28;20099;-62
2021/11/20 06:08:07;;;;;;;33.90;12.20;;;;;;;;;;5035188;28;20455;-62
2021/11/20 06:10:35;;;;;;;30.58;12.45;;;;;;;;;;5035151;28;20053;-62
2021/11/20 06:13:03;;;;;;;28.23;12.30;;;;;;;;;;5034954;28;20061;-62
2021/11/20 06:15:32;;;;;;;32.42;12.85;;;;;;;;;;5035007;28;20053;-61
2021/11/20 06:17:59;;;;;;;30.48;11.35;;;;;;;;;;5034987;28;20062;-61
2021/11/20 06:20:26;;;;;;;29.42;12.10;;;;;;;;;;5035251;28;20386;-62
2021/11/20 06:22:53;;;;;;;28.83;12.32;;;;;;;;;;5034968;28;20053;-61
2021/11/20 06:25:20;;;;;;;27.75;12.45;;;;;;;;;;5034890;28;20441;-61
2021/11/20 06:27:47;;;;;;;27.17;11.48;;;;;;;;;;5035159;28;20049;-62
2021/11/20 06:30:19;;;;;;;27.52;11.98;;;;;;;;;;5035000;28;20058;-62
2021/11/20 06:32:47;;;;;;;27.95;12.52;;;;;;;;;;5035033;28;20050;-66
2021/11/20 06:35:18;;;;;;;31.35;12.40;;;;;;;;;;5034813;28;20418;-64
2021/11/20 06:37:46;;;;;;;25.92;11.93;;;;;;;;;;5034722;28;20042;-64
2021/11/20 06:40:15;;;;;;;27.13;11.27;;;;;;;;;;5034745;28;20085;-64
2021/11/20 06:42:43;;;;;;;30.63;13.98;;;;;;;;;;5034483;28;20414;-64
2021/11/20 06:45:12;;;;;;;27.10;10.77;;;;;;;;;;5023036;28;20056;-64
2021/11/20 06:47:39;;;;;;;31.40;11.38;;;;;;;;;;5014696;28;20046;-64
2021/11/20 06:50:08;;;;;;;23.73;11.38;;;;;;;;;;5014763;28;20057;-64
2021/11/20 06:52:35;;;;;;;32.75;13.05;;;;;;;;;;5014723;28;20050;-64
2021/11/20 06:55:04;;;;;;;28.85;12.35;;;;;;;;;;5014495;28;20049;-64
2021/11/20 06:57:53;;;;;;;31.00;12.18;;;;;;;;;;5014362;28;20053;-63
2021/11/20 07:00:28;;;;;;;28.70;13.35;;;;;;;;;;5014400;28;20420;-64
2021/11/20 07:03:01;;;;;;;35.88;12.52;;;;;;;;;;5014443;28;20060;-65
2021/11/20 07:05:32;;;;;;;29.65;11.48;;;;;;;;;;5014213;28;20060;-65
2021/11/20 07:08:01;;;;;;;26.02;11.05;;;;;;;;;;5014162;28;20050;-64
2021/11/20 07:10:28;;;;;;;31.48;12.10;;;;;;;;;;5014444;28;20438;-64
2021/11/20 07:12:58;;;;;;;28.63;12.13;;;;;;;;;;5014243;28;20057;-64
2021/11/20 07:15:27;;;;;;;31.17;11.57;;;;;;;;;;5014005;28;20461;-64
2021/11/20 07:17:56;;;;;;;32.28;12.30;;;;;;;;;;5014120;28;20050;-63
2021/11/20 07:20:25;;;;;;;30.23;12.82;;;;;;;;;;5014454;28;20545;-67
2021/11/20 07:22:55;;;;;;;26.55;12.30;;;;;;;;;;5014163;28;20097;-63
2021/11/20 07:25:24;;;;;;;34.13;12.13;;;;;;;;;;5013642;28;20054;-65
2021/11/20 07:27:51;;;;;;;30.05;12.20;;;;;;;;;;5013903;28;20141;-65
2021/11/20 07:30:18;;;;;;;29.08;12.40;;;;;;;;;;5014001;28;20160;-64
2021/11/20 07:32:46;;;;;;;35.88;14.90;;;;;;;;;;5013811;28;20050;-64
2021/11/20 07:35:14;;;;;;;38.00;14.20;;;;;;;;;;5013744;28;20144;-64
2021/11/20 07:37:41;;;;;;;32.83;13.35;;;;;;;;;;5013950;28;20042;-64
2021/11/20 07:40:11;;;;;;;40.25;15.90;;;;;;;;;;5013849;28;20076;-64
2021/11/20 07:42:38;;;;;;;53.33;19.10;;;;;;;;;;5013653;28;20054;-63
2021/11/20 07:45:05;;;;;;;41.50;16.17;;;;;;;;;;5013238;28;20060;-63
2021/11/20 07:47:33;;;;;;;40.50;17.98;;;;;;;;;;5013025;28;20056;-64
2021/11/20 07:50:00;;;;;;;40.28;15.80;;;;;;;;;;5013590;28;20532;-64
2021/11/20 07:52:27;;;;;;;36.70;14.68;;;;;;;;;;5013704;28;20056;-64
2021/11/20 07:54:54;;;;;;;34.55;14.68;;;;;;;;;;5013321;28;20053;-65
2021/11/20 07:57:26;;;;;;;40.55;14.73;;;;;;;;;;5014144;28;20056;-63
2021/11/20 07:59:53;;;;;;;36.38;14.90;;;;;;;;;;5013421;28;20092;-63
2021/11/20 08:02:20;;;;;;;38.17;14.05;;;;;;;;;;5013255;28;20046;-64
2021/11/20 08:04:47;;;;;;;36.63;14.85;;;;;;;;;;5012929;28;20049;-62
2021/11/20 08:07:14;;;;;;;40.58;14.95;;;;;;;;;;5013164;28;20042;-64
2021/11/20 08:09:41;;;;;;;47.08;16.30;;;;;;;;;;5013214;28;20046;-65
2021/11/20 08:12:08;;;;;;;42.70;14.07;;;;;;;;;;5013408;28;20054;-64
2021/11/20 08:14:37;;;;;;;39.75;14.85;;;;;;;;;;5012973;28;20050;-64
2021/11/20 08:17:04;;;;;;;37.63;14.77;;;;;;;;;;5012994;28;20566;-64
2021/11/20 08:19:33;;;;;;;39.78;14.90;;;;;;;;;;5012996;28;20057;-65
2021/11/20 08:22:01;;;;;;;39.28;15.13;;;;;;;;;;5013042;28;20073;-65
2021/11/20 08:24:28;;;;;;;41.55;17.48;;;;;;;;;;5012665;28;20050;-63
2021/11/20 08:26:56;;;;;;;37.03;15.27;;;;;;;;;;5012468;28;20054;-63
2021/11/20 08:29:23;;;;;;;51.55;16.27;;;;;;;;;;5012780;28;20054;-64
2021/11/20 08:31:53;;;;;;;42.05;16.65;;;;;;;;;;5012740;28;20466;-65
2021/11/20 08:34:21;;;;;;;49.90;19.67;;;;;;;;;;5013052;28;20125;-64
2021/11/20 08:36:48;;;;;;;43.17;15.25;;;;;;;;;;5012277;28;20049;-64
2021/11/20 08:39:19;;;;;;;36.08;13.98;;;;;;;;;;5012568;28;20140;-64
2021/11/20 08:41:47;;;;;;;37.17;14.43;;;;;;;;;;5013047;28;20056;-65
2021/11/20 08:44:14;;;;;;;38.60;16.40;;;;;;;;;;5012691;28;20050;-64
2021/11/20 08:46:43;;;;;;;29.80;14.00;;;;;;;;;;5012485;28;20049;-63
2021/11/20 08:49:12;;;;;;;42.63;15.10;;;;;;;;;;5012515;28;20058;-65
2021/11/20 08:51:39;;;;;;;39.72;14.95;;;;;;;;;;5012391;28;20461;-65
2021/11/20 08:54:07;;;;;;;37.10;14.77;;;;;;;;;;5012352;28;20128;-65
2021/11/20 08:56:37;;;;;;;38.63;16.20;;;;;;;;;;5012337;28;20148;-64
2021/11/20 08:59:05;;;;;;;34.92;16.45;;;;;;;;;;5012223;28;20427;-64
2021/11/20 09:01:35;;;;;;;41.33;16.85;;;;;;;;;;5012512;28;20060;-66
2021/11/20 09:04:05;;;;;;;39.78;17.08;;;;;;;;;;5012214;28;20513;-66
2021/11/20 09:06:35;;;;;;;;;;;;;;;;;;5012667;28;20050;-66
2021/11/20 09:09:08;;;;;;;36.08;13.23;;;;;;;;;;5012634;28;19948;-65
2021/11/20 09:11:38;;;;;;;31.38;12.98;;;;;;;;;;5012408;28;20053;-66
2021/11/20 09:14:09;;;;;;;32.22;13.00;;;;;;;;;;5012636;28;20050;-66
2021/11/20 09:16:38;;;;;;;29.42;12.40;;;;;;;;;;5012214;28;20077;-63
2021/11/20 09:19:07;;;;;;;30.40;12.88;;;;;;;;;;5012139;28;20054;-66
2021/11/20 09:21:35;;;;;;;30.98;12.70;;;;;;;;;;5012529;28;20050;-66
2021/11/20 09:24:02;;;;;;;32.75;12.43;;;;;;;;;;5012700;28;20142;-65
2021/11/20 09:26:31;;;;;;;30.40;12.73;;;;;;;;;;5012084;28;20045;-65
2021/11/20 09:29:00;;;;;;;25.42;11.15;;;;;;;;;;5012901;28;20050;-65
2021/11/20 09:31:29;;;;;;;25.92;11.85;;;;;;;;;;5013017;28;20046;-66
2021/11/20 09:33:56;;;;;;;27.20;12.20;;;;;;;;;;5012302;28;20050;-65
2021/11/20 09:36:25;;;;;;;31.23;11.27;;;;;;;;;;5011987;28;20054;-65
2021/11/20 09:38:53;;;;;;;29.45;12.20;;;;;;;;;;5012791;28;20487;-66
2021/11/20 09:41:23;;;;;;;26.85;10.57;;;;;;;;;;5012224;28;20060;-65
2021/11/20 09:43:53;;;;;;;34.10;13.82;;;;;;;;;;5011995;28;20053;-65
2021/11/20 09:46:24;;;;;;;30.77;12.05;;;;;;;;;;5012031;28;20514;-65
2021/11/20 09:48:53;;;;;;;28.48;11.60;;;;;;;;;;5012160;28;20060;-65
2021/11/20 09:51:27;;;;;;;28.45;9.95;;;;;;;;;;5011796;28;20057;-66
2021/11/20 09:53:57;;;;;;;23.05;10.20;;;;;;;;;;5011929;28;20085;-66
2021/11/20 09:56:28;;;;;;;22.58;10.00;;;;;;;;;;5011881;28;20065;-65
2021/11/20 09:58:55;;;;;;;;;;;;;;;;;;5012424;28;20054;-65
2021/11/20 10:01:29;;;;;;;25.02;10.75;;;;;;;;;;5011986;28;20394;-65
2021/11/20 10:04:14;;;;;;;38.25;15.93;;;;;;;;;;5012200;28;20503;-65
2021/11/20 10:06:43;;;;;;;23.65;9.77;;;;;;;;;;5011688;28;20087;-65
2021/11/20 10:09:22;;;;;;;27.58;11.48;;;;;;;;;;5012034;28;20092;-70
2021/11/20 10:11:55;;;;;;;25.35;10.80;;;;;;;;;;5015322;28;20057;-65
2021/11/20 10:14:29;;;;;;;20.90;9.30;;;;;;;;;;5015913;28;20517;-65
2021/11/20 10:17:01;;;;;;;27.55;12.75;;;;;;;;;;5015238;28;20046;-65
2021/11/20 10:19:38;;;;;;;24.65;10.20;;;;;;;;;;5015454;28;20053;-66
2021/11/20 10:22:20;;;;;;;21.27;9.27;;;;;;;;;;5015297;28;20089;-66
2021/11/20 10:25:04;;;;;;;23.73;10.05;;;;;;;;;;5015078;28;20064;-65
2021/11/20 10:27:43;;;;;;;23.70;9.50;;;;;;;;;;5015447;28;20061;-66
2021/11/20 10:30:25;;;;;;;24.15;10.45;;;;;;;;;;5015620;28;20178;-66
2021/11/20 10:32:56;;;;;;;21.35;10.15;;;;;;;;;;5015813;28;20060;-65
2021/11/20 10:35:25;;;;;;;;;;;;;;;;;;5015226;28;20524;-65
2021/11/20 10:37:56;;;;;;;21.80;9.57;;;;;;;;;;5015073;28;19921;-65
2021/11/20 10:40:33;;;;;;;25.45;11.15;;;;;;;;;;5014755;28;20046;-65
2021/11/20 10:43:03;;;;;;;21.25;9.43;;;;;;;;;;5015081;28;20141;-66
2021/11/20 10:45:39;;;;;;;23.95;9.68;;;;;;;;;;5014728;28;20057;-64
2021/11/20 10:48:23;;;;;;;17.27;7.55;;;;;;;;;;5014856;28;20462;-65
2021/11/20 10:50:56;;;;;;;19.50;9.63;;;;;;;;;;5014665;28;20054;-65
2021/11/20 10:54:00;;;;;;;14.55;6.93;;;;;;;;;;5014674;28;20042;-65
2021/11/20 10:56:34;;;;;;;18.25;7.00;;;;;;;;;;5034734;22;20048;-63
2021/11/20 10:59:15;;;;;;;12.40;6.07;;;;;;;;;;5054061;28;20076;-63
2021/11/20 11:02:12;;;;;;;;;;;;;;;;;;5054819;28;20080;-64
2021/11/20 11:05:21;;;;;;;9.57;5.25;;;;;;;;;;5012084;28;20338;-63
2021/11/20 11:07:56;;;;;;;12.60;5.93;;;;;;;;;;5026680;28;20053;-63
2021/11/20 11:10:33;;;;;;;22.42;9.75;;;;;;;;;;5055814;28;20111;-64
2021/11/20 11:13:10;;;;;;;12.25;5.78;;;;;;;;;;5050956;28;20132;-65
2021/11/20 11:16:03;;;;;;;10.57;5.20;;;;;;;;;;5052027;28;20045;-62
2021/11/20 11:18:38;;;;;;;10.13;4.45;;;;;;;;;;5047930;28;20045;-63
2021/11/20 11:21:55;;;;;;;8.73;4.47;;;;;;;;;;5042598;28;20098;-63
2021/11/20 11:24:39;;;;;;;8.68;4.20;;;;;;;;;;4969870;28;20093;-65
2021/11/20 11:27:12;;;;;;;6.70;3.42;;;;;;;;;;4987174;28;20064;-61
2021/11/20 11:30:02;;;;;;;9.30;5.13;;;;;;;;;;5033028;28;20339;-63
2021/11/20 11:32:32;;;;;;;9.30;4.43;;;;;;;;;;5034375;28;20441;-64
2021/11/20 11:35:05;;;;;;;9.18;3.60;;;;;;;;;;5033540;28;20052;-64
2021/11/20 11:37:44;;;;;;;8.85;4.13;;;;;;;;;;5033685;28;20132;-65
2021/11/20 11:40:32;;;;;;;25.10;12.85;;;;;;;;;;5033679;28;20049;-65
2021/11/20 11:43:14;;;;;;;10.85;4.68;;;;;;;;;;5033482;28;20049;-65
2021/11/20 11:46:16;;;;;;;8.25;3.97;;;;;;;;;;5033556;28;20081;-63
2021/11/20 11:49:21;;;;;;;8.65;4.40;;;;;;;;;;5020795;28;20059;-64
2021/11/20 11:52:01;;;;;;;7.13;3.60;;;;;;;;;;5033617;28;20049;-64
2021/11/20 11:54:43;;;;;;;8.75;4.38;;;;;;;;;;5033525;28;20055;-64
2021/11/20 11:57:40;;;;;;;9.10;4.30;;;;;;;;;;5033469;28;20446;-65
2021/11/20 12:00:32;;;;;;;8.88;3.83;;;;;;;;;;5033468;28;20056;-62
2021/11/20 12:03:03;;;;;;;9.07;4.47;;;;;;;;;;5051087;28;20048;-63
2021/11/20 12:05:41;;;;;;;7.60;3.85;;;;;;;;;;5052509;28;20080;-62
2021/11/20 12:08:36;;;;;;;11.70;5.63;;;;;;;;;;5053055;28;20060;-63
2021/11/20 12:11:18;;;;;;;23.30;11.15;;;;;;;;;;5043300;28;20478;-63
2021/11/20 12:13:51;;;;;;;16.05;8.40;;;;;;;;;;5051020;28;20414;-63
2021/11/20 12:16:44;;;;;;;12.48;6.38;;;;;;;;;;5050650;28;20127;-62
2021/11/20 12:19:27;;;;;;;6.95;4.03;;;;;;;;;;5050967;28;20045;-62
2021/11/20 12:22:00;;;;;;;7.68;3.80;;;;;;;;;;5050423;28;20049;-62
2021/11/20 12:24:46;;;;;;;10.75;5.40;;;;;;;;;;5050705;28;20044;-63
2021/11/20 12:27:30;;;;;;;9.90;5.28;;;;;;;;;;5050166;28;20099;-63
2021/11/20 12:30:32;;;;;;;11.02;5.10;;;;;;;;;;5030517;28;20053;-64
2021/11/20 12:33:13;;;;;;;19.23;8.63;;;;;;;;;;5030203;28;20112;-63
2021/11/20 12:35:55;;;;;;;18.98;8.57;;;;;;;;;;5030883;28;20049;-63
2021/11/20 12:38:46;;;;;;;14.75;6.57;;;;;;;;;;5031045;28;20041;-64
2021/11/20 12:41:31;;;;;;;11.10;5.50;;;;;;;;;;5030536;28;20104;-65
2021/11/20 12:44:13;;;;;;;13.38;5.15;;;;;;;;;;5030362;28;20465;-64
2021/11/20 12:47:21;;;;;;;11.80;5.55;;;;;;;;;;5030502;28;20049;-63
2021/11/20 12:50:06;;;;;;;13.13;6.15;;;;;;;;;;5030606;28;20053;-63
2021/11/20 12:52:38;;;;;;;9.65;5.35;;;;;;;;;;5030406;28;20057;-63
2021/11/20 12:55:22;;;;;;;10.73;5.55;;;;;;;;;;5030299;28;20426;-62
2021/11/20 12:57:54;;;;;;;9.75;5.15;;;;;;;;;;5030224;28;20049;-63
2021/11/20 13:00:27;;;;;;;10.55;5.50;;;;;;;;;;5030168;28;20124;-63
2021/11/20 13:03:02;;;;;;;9.55;4.93;;;;;;;;;;5037214;28;20207;-62
2021/11/20 13:05:33;;;;;;;11.02;5.15;;;;;;;;;;5037421;28;20041;-62
2021/11/20 13:08:07;;;;;;;10.93;5.60;;;;;;;;;;5037082;28;20478;-64
2021/11/20 13:10:40;;;;;;;13.57;6.25;;;;;;;;;;5029917;28;20053;-65
2021/11/20 13:13:31;;;;;;;13.85;6.57;;;;;;;;;;5037181;28;20520;-63
2021/11/20 13:16:26;;;;;;;10.07;5.75;;;;;;;;;;5049620;28;20067;-62
2021/11/20 13:19:17;;;;;;;10.60;5.65;;;;;;;;;;5049614;28;20096;-63
2021/11/20 13:22:01;;;;;;;11.93;6.90;;;;;;;;;;5049498;28;20074;-64
2021/11/20 13:24:31;;;;;;;18.92;10.30;;;;;;;;;;5042975;28;20414;-62
2021/11/20 13:26:59;;;;;;;17.02;8.63;;;;;;;;;;5039478;28;20037;-63
2021/11/20 13:29:33;;;;;;;12.63;6.03;;;;;;;;;;5040378;28;20120;-63
2021/11/20 13:32:03;;;;;;;11.07;6.40;;;;;;;;;;5040057;28;20067;-63
2021/11/20 13:34:36;;;;;;;15.30;6.80;;;;;;;;;;5040251;28;20130;-63
2021/11/20 13:37:10;;;;;;;11.05;5.35;;;;;;;;;;5037813;28;20053;-62
2021/11/20 13:39:43;;;;;;;9.88;6.13;;;;;;;;;;5029742;28;20060;-64
2021/11/20 13:42:10;;;;;;;13.18;7.03;;;;;;;;;;5029755;28;20053;-62
2021/11/20 13:44:42;;;;;;;12.38;6.53;;;;;;;;;;5029696;28;20049;-63
2021/11/20 13:47:10;;;;;;;14.98;7.22;;;;;;;;;;5033286;28;20041;-62
2021/11/20 13:49:40;;;;;;;9.55;6.05;;;;;;;;;;5033115;28;20080;-63
2021/11/20 13:52:08;;;;;;;10.98;6.43;;;;;;;;;;5033302;28;20056;-64
2021/11/20 13:54:36;;;;;;;13.15;6.13;;;;;;;;;;5033112;28;20111;-61
2021/11/20 13:57:04;;;;;;;18.20;8.02;;;;;;;;;;5033648;28;20049;-63
2021/11/20 13:59:31;;;;;;;12.82;6.88;;;;;;;;;;5033309;28;20049;-63
2021/11/20 14:02:00;;;;;;;27.52;12.40;;;;;;;;;;5033190;28;20056;-63
2021/11/20 14:04:37;;;;;;;12.10;6.57;;;;;;;;;;5032942;28;20137;-64
2021/11/20 14:07:09;;;;;;;16.88;7.15;;;;;;;;;;5033178;28;20049;-63
2021/11/20 14:09:44;;;;;;;11.68;6.60;;;;;;;;;;5033238;28;20137;-63
2021/11/20 14:12:13;;;;;;;12.88;7.05;;;;;;;;;;5032943;28;20141;-63
2021/11/20 14:14:41;;;;;;;13.05;6.93;;;;;;;;;;5032718;28;20049;-64
2021/11/20 14:17:12;;;;;;;13.68;7.22;;;;;;;;;;5032842;28;20046;-63
2021/11/20 14:19:40;;;;;;;12.82;7.80;;;;;;;;;;5033030;28;20049;-62
2021/11/20 14:22:11;;;;;;;12.23;6.32;;;;;;;;;;5033047;28;20050;-64
2021/11/20 14:24:41;;;;;;;12.75;7.35;;;;;;;;;;5032841;28;20049;-63
2021/11/20 14:27:13;;;;;;;12.73;7.00;;;;;;;;;;5032753;28;20137;-63
2021/11/20 14:29:48;;;;;;;12.40;7.68;;;;;;;;;;5032391;28;20064;-63
2021/11/20 14:32:19;;;;;;;13.95;8.13;;;;;;;;;;5032847;28;20049;-63
2021/11/20 14:34:49;;;;;;;;;;;;;;;;;;5035948;28;20056;-64
2021/11/20 14:37:19;;;;;;;13.70;7.33;;;;;;;;;;5053095;28;20361;-63
2021/11/20 14:39:49;;;;;;;14.40;7.28;;;;;;;;;;5052443;28;20045;-63
2021/11/20 14:42:17;;;;;;;14.93;7.50;;;;;;;;;;5052536;28;20049;-63
2021/11/20 14:44:44;;;;;;;13.05;7.20;;;;;;;;;;5052580;28;20049;-64
2021/11/20 14:47:13;;;;;;;15.27;7.40;;;;;;;;;;5052474;28;20445;-63
2021/11/20 14:49:43;;;;;;;14.18;7.22;;;;;;;;;;5052481;28;20071;-63